createdAt,value
2023-05-10T00:02:54.546Z,96466.16
2023-05-10T00:07:56.298Z,96465.66
2023-05-10T00:12:58.139Z,96463.69
2023-05-10T00:18:00.022Z,96463.97
2023-05-10T00:23:01.955Z,96456.31
2023-05-10T00:28:03.850Z,96457.13
2023-05-10T00:33:05.689Z,96457.59
2023-05-10T00:38:07.754Z,96460.22
2023-05-10T00:43:09.457Z,96462.31
2023-05-10T00:48:11.280Z,96458.91
2023-05-10T00:53:13.019Z,96447.88
2023-05-10T00:58:15.303Z,96447.69
2023-05-10T01:03:20.133Z,96446.91
2023-05-10T01:08:23.120Z,96438.25
2023-05-10T01:13:38.910Z,96443.31
2023-05-10T01:18:42.792Z,96446.06
2023-05-10T01:24:22.101Z,96441.00
2023-05-10T01:29:43.280Z,96439.91
2023-05-10T01:35:01.755Z,96439.59
2023-05-10T01:40:31.237Z,96444.94
2023-05-10T01:45:38.750Z,96439.88
2023-05-10T01:50:44.132Z,96442.16
2023-05-10T01:55:49.916Z,96440.69
2023-05-10T02:00:53.299Z,96451.72
2023-05-10T02:05:57.432Z,96444.59
2023-05-10T02:11:00.163Z,96452.25
2023-05-10T02:16:05.604Z,96447.34
2023-05-10T02:21:09.362Z,96439.72
2023-05-10T02:26:15.221Z,96448.00
2023-05-10T02:31:18.883Z,96449.09
2023-05-10T02:36:23.708Z,96456.28
2023-05-10T02:41:27.353Z,96448.31
2023-05-10T02:46:29.717Z,96452.50
2023-05-10T02:51:35.954Z,96455.47
2023-05-10T02:56:43.944Z,96449.09
2023-05-10T03:01:46.489Z,96448.13
2023-05-10T03:06:48.795Z,96447.28
2023-05-10T03:12:15.506Z,96449.72
2023-05-10T03:17:36.185Z,96453.59
2023-05-10T03:22:41.880Z,96456.66
2023-05-10T03:27:45.055Z,96455.19
2023-05-10T03:32:46.902Z,96459.41
2023-05-10T03:37:51.371Z,96462.47
2023-05-10T03:42:53.250Z,96464.59
2023-05-10T03:47:55.016Z,96466.31
2023-05-10T03:52:58.405Z,96466.50
2023-05-10T03:58:00.152Z,96475.72
2023-05-10T04:03:02.274Z,96473.91
2023-05-10T04:08:05.117Z,96473.28
2023-05-10T04:13:07.264Z,96481.16
2023-05-10T04:18:09.050Z,96490.34
2023-05-10T04:23:10.992Z,96505.25
2023-05-10T04:28:12.803Z,96505.00
2023-05-10T04:33:15.330Z,96511.78
2023-05-10T04:38:17.028Z,96508.50
2023-05-10T04:43:19.325Z,96516.41
2023-05-10T04:48:21.010Z,96515.69
2023-05-10T04:53:22.902Z,96527.91
2023-05-10T04:58:24.555Z,96535.47
2023-05-10T05:03:26.365Z,96538.56
2023-05-10T05:08:28.219Z,96535.53
2023-05-10T05:13:30.356Z,96553.81
2023-05-10T05:18:32.203Z,96559.03
2023-05-10T05:23:34.042Z,96563.91
2023-05-10T05:28:38.203Z,96562.47
2023-05-10T05:33:40.117Z,96570.53
2023-05-10T05:38:41.859Z,96572.19
2023-05-10T05:43:43.753Z,96575.03
2023-05-10T05:48:45.593Z,96579.03
2023-05-10T05:53:47.937Z,96598.81
2023-05-10T05:58:50.580Z,96593.72
2023-05-10T06:03:53.506Z,96604.72
2023-05-10T06:08:55.900Z,96611.13
2023-05-10T06:13:57.873Z,96622.25
2023-05-10T06:19:00.275Z,96628.38
2023-05-10T06:24:01.988Z,96632.66
2023-05-10T06:29:03.647Z,96632.47
2023-05-10T06:34:08.869Z,96640.44
2023-05-10T06:39:12.575Z,96655.81
2023-05-10T06:44:14.311Z,96656.44
2023-05-10T06:49:16.059Z,96659.09
2023-05-10T06:54:17.716Z,96666.00
2023-05-10T06:59:20.384Z,96666.53
2023-05-10T07:04:22.118Z,96669.88
2023-05-10T07:09:25.306Z,96673.88
2023-05-10T07:14:27.076Z,96671.03
2023-05-10T07:19:30.376Z,96676.09
2023-05-10T07:24:34.067Z,96676.69
2023-05-10T07:29:36.860Z,96691.78
2023-05-10T07:34:38.918Z,96692.09
2023-05-10T07:39:40.621Z,96687.25
2023-05-10T07:44:42.843Z,96679.72
2023-05-10T07:49:44.856Z,96687.25
2023-05-10T07:54:46.517Z,96698.72
2023-05-10T07:59:48.496Z,96686.19
2023-05-10T08:04:50.199Z,96683.56
2023-05-10T08:09:52.111Z,96687.22
2023-05-10T08:14:53.847Z,96681.91
2023-05-10T08:19:55.620Z,96699.00
2023-05-10T08:24:57.382Z,96696.03
2023-05-10T08:29:59.100Z,96696.84
2023-05-10T08:35:00.845Z,96702.16
2023-05-10T08:40:02.790Z,96702.47
2023-05-10T08:45:05.821Z,96699.88
2023-05-10T08:50:08.141Z,96706.16
2023-05-10T08:55:10.487Z,96714.72
2023-05-10T09:00:13.047Z,96712.56
2023-05-10T09:05:17.110Z,96730.00
2023-05-10T09:10:20.548Z,96719.66
2023-05-10T09:15:22.465Z,96723.09
2023-05-10T09:20:25.326Z,96723.09
2023-05-10T09:25:26.953Z,96715.63
2023-05-10T09:30:32.177Z,96715.28
2023-05-10T09:35:34.609Z,96725.22
2023-05-10T09:40:36.355Z,96720.34
2023-05-10T09:45:39.128Z,96723.22
2023-05-10T09:50:41.311Z,96722.00
2023-05-10T09:55:47.975Z,96728.34
2023-05-10T10:00:53.211Z,96716.06
2023-05-10T10:05:56.935Z,96718.94
2023-05-10T10:10:58.688Z,96709.41
2023-05-10T10:16:00.691Z,96708.16
2023-05-10T10:21:03.138Z,96702.38
2023-05-10T10:26:05.769Z,96701.19
2023-05-10T10:31:27.480Z,96700.03
2023-05-10T10:36:29.477Z,96703.94
2023-05-10T10:41:36.469Z,96704.75
2023-05-10T10:47:09.179Z,96686.72
2023-05-10T10:52:34.304Z,96694.00
2023-05-10T10:57:48.260Z,96687.81
2023-05-10T11:02:57.119Z,96688.81
2023-05-10T11:08:00.867Z,96701.84
2023-05-10T11:13:11.064Z,96705.50
2023-05-10T11:18:21.110Z,96686.94
2023-05-10T11:23:23.354Z,96690.66
2023-05-10T11:28:25.319Z,96685.81
2023-05-10T11:33:27.146Z,96690.41
2023-05-10T11:38:28.832Z,96693.38
2023-05-10T11:43:31.725Z,96689.94
2023-05-10T11:48:34.233Z,96710.72
2023-05-10T11:53:36.120Z,96704.28
2023-05-10T11:58:39.190Z,96718.06
2023-05-10T12:03:41.411Z,96711.31
2023-05-10T12:08:53.525Z,96724.50
2023-05-10T12:13:57.280Z,96724.34
2023-05-10T12:19:00.852Z,96734.19
2023-05-10T12:24:04.700Z,96721.69
2023-05-10T12:29:20.015Z,96718.97
2023-05-10T12:34:32.199Z,96720.72
2023-05-10T12:39:45.867Z,96729.63
2023-05-10T12:44:47.689Z,96727.31
2023-05-10T12:49:49.377Z,96729.03
2023-05-10T12:54:51.174Z,96725.38
2023-05-10T12:59:52.836Z,96718.81
2023-05-10T13:04:54.559Z,96722.66
2023-05-10T13:09:56.373Z,96729.53
2023-05-10T13:14:58.403Z,96718.78
2023-05-10T13:20:00.135Z,96717.31
2023-05-10T13:25:02.529Z,96729.69
2023-05-10T13:30:04.980Z,96723.03
2023-05-10T13:35:07.008Z,96726.94
2023-05-10T13:40:09.225Z,96731.28
2023-05-10T13:45:13.285Z,96730.81
2023-05-10T13:50:15.434Z,96731.81
2023-05-10T13:55:17.367Z,96726.78
2023-05-10T14:00:19.536Z,96722.53
2023-05-10T14:05:25.498Z,96720.41
2023-05-10T14:10:28.173Z,96721.22
2023-05-10T14:15:29.965Z,96721.69
2023-05-10T14:20:33.085Z,96721.38
2023-05-10T14:25:35.549Z,96722.28
2023-05-10T14:30:37.513Z,96741.53
2023-05-10T14:35:39.952Z,96739.28
2023-05-10T14:40:42.239Z,96753.72
2023-05-10T14:45:44.327Z,96753.88
2023-05-10T14:50:46.316Z,96765.75
2023-05-10T14:55:48.190Z,96756.94
2023-05-10T15:00:49.796Z,96762.66
2023-05-10T15:05:52.994Z,96760.81
2023-05-10T15:10:56.671Z,96757.16
2023-05-10T15:15:58.328Z,96754.09
2023-05-10T15:21:00.198Z,96770.72
2023-05-10T15:26:02.189Z,96767.97
2023-05-10T15:31:04.011Z,96777.38
2023-05-10T15:36:05.844Z,96772.31
2023-05-10T15:41:07.654Z,96782.81
2023-05-10T15:46:09.555Z,96782.38
2023-05-10T15:51:11.414Z,96783.19
2023-05-10T15:56:13.236Z,96786.47
2023-05-10T16:01:15.063Z,96787.47
2023-05-10T16:06:17.350Z,96787.53
2023-05-10T16:11:19.070Z,96794.25
2023-05-10T16:16:20.917Z,96796.06
2023-05-10T16:21:22.954Z,96825.75
2023-05-10T16:26:24.743Z,96828.84
2023-05-10T16:31:26.479Z,96837.59
2023-05-10T16:36:29.511Z,96838.34
2023-05-10T16:41:34.858Z,96845.19
2023-05-10T16:46:36.822Z,96844.44
2023-05-10T16:51:38.540Z,96841.75
2023-05-10T16:56:40.845Z,96850.63
2023-05-10T17:01:42.533Z,96854.13
2023-05-10T17:06:44.696Z,96853.91
2023-05-10T17:11:46.648Z,96859.94
2023-05-10T17:16:48.432Z,96862.22
2023-05-10T17:21:50.311Z,96859.56
2023-05-10T17:26:52.033Z,96861.63
2023-05-10T17:31:53.873Z,96860.56
2023-05-10T17:36:55.560Z,96861.41
2023-05-10T17:41:57.271Z,96867.50
2023-05-10T17:46:59.203Z,96881.00
2023-05-10T17:52:01.280Z,96878.84
2023-05-10T17:57:03.728Z,96886.41
2023-05-10T18:02:05.732Z,96888.19
2023-05-10T18:07:07.856Z,96901.94
2023-05-10T18:12:09.705Z,96899.31
2023-05-10T18:17:11.435Z,96901.81
2023-05-10T18:22:13.355Z,96900.78
2023-05-10T18:27:15.144Z,96900.72
2023-05-10T18:32:17.415Z,96904.06
2023-05-10T18:37:19.384Z,96907.16
2023-05-10T18:42:21.125Z,96909.31
2023-05-10T18:47:23.114Z,96912.13
2023-05-10T18:52:25.011Z,96922.69
2023-05-10T18:57:27.739Z,96925.41
2023-05-10T19:02:29.996Z,96930.84
2023-05-10T19:07:32.053Z,96940.44
2023-05-10T19:12:34.160Z,96928.03
2023-05-10T19:17:36.738Z,96932.94
2023-05-10T19:22:54.238Z,96935.66
2023-05-10T19:28:01.369Z,96925.69
2023-05-10T19:33:05.060Z,96942.69
2023-05-10T19:38:07.046Z,96943.19
2023-05-10T19:43:09.319Z,96940.44
2023-05-10T19:48:11.151Z,96946.53
2023-05-10T19:53:13.115Z,96946.81
2023-05-10T19:58:14.863Z,96956.22
2023-05-10T20:03:17.181Z,96963.72
2023-05-10T20:08:18.985Z,96953.25
2023-05-10T20:13:21.134Z,96947.81
2023-05-10T20:18:23.508Z,96954.44
2023-05-10T20:23:26.083Z,96949.84
2023-05-10T20:28:28.929Z,96957.81
2023-05-10T20:33:30.840Z,96957.25
2023-05-10T20:38:32.495Z,96957.25
2023-05-10T20:43:34.323Z,96953.41
2023-05-10T20:48:36.025Z,96957.03
2023-05-10T20:53:37.757Z,96956.47
2023-05-10T20:58:39.432Z,96954.50
2023-05-10T21:03:41.153Z,96955.63
2023-05-10T21:08:43.477Z,96961.56
2023-05-10T21:13:45.619Z,96956.94
2023-05-10T21:18:47.318Z,96962.78
2023-05-10T21:23:49.173Z,96954.94
2023-05-10T21:28:51.448Z,96950.50
2023-05-10T21:33:53.099Z,96950.22
2023-05-10T21:38:54.907Z,96950.22
2023-05-10T21:43:57.261Z,96947.84
2023-05-10T21:49:01.512Z,96947.78
2023-05-10T21:54:03.208Z,96942.56
2023-05-10T21:59:05.018Z,96947.19
2023-05-10T22:04:06.701Z,96939.31
2023-05-10T22:09:08.591Z,96936.34
2023-05-10T22:14:10.305Z,96933.31
2023-05-10T22:19:12.299Z,96930.56
2023-05-10T22:24:14.304Z,96924.75
2023-05-10T22:29:16.101Z,96931.78
2023-05-10T22:34:18.745Z,96935.63
2023-05-10T22:39:20.450Z,96935.63
2023-05-10T22:44:22.300Z,96930.16
2023-05-10T22:49:24.815Z,96929.56
2023-05-10T22:54:26.397Z,96930.03
2023-05-10T22:59:28.647Z,96919.63
2023-05-10T23:04:30.686Z,96923.75
2023-05-10T23:09:32.338Z,96922.66
2023-05-10T23:14:34.035Z,96929.28
2023-05-10T23:19:36.021Z,96921.88
2023-05-10T23:24:39.106Z,96932.03
2023-05-10T23:29:40.840Z,96931.78
2023-05-10T23:34:42.497Z,96924.66
2023-05-10T23:39:44.711Z,96918.03
2023-05-10T23:44:46.850Z,96920.78
2023-05-10T23:49:50.212Z,96913.63
2023-05-10T23:54:52.510Z,96922.09
2023-05-10T23:59:54.407Z,96910.81
